Terminal Aerodrome Forecast
Issued by NWS

Home | Current Version | Previous Version | Text Only | Print | Product List | Glossary On
Versions: 1 2 3 4 5 6 7 8 9 10 11 12 13 14 15 16 17 18 19 20 21 22 23 24
975
FTUS43 KPAH 151402 AAA
TAFCGI
TAF AMD
KCGI 151402Z 1514/1612 VRB03KT 2SM BR BKN002 BKN010
      TEMPO 1514/1515 4SM BR
     FM151500 18005KT P6SM SCT020 BKN050
     FM160000 15003KT P6SM SCT100 BKN250=

USA.gov is the U.S. government's official web portal to all federal, state and local government web resources and services.